Terminal Aerodrome Forecast
Issued by NWS Charleston, WV

Current Version | Previous Version | Text Only | Print | Product List | Glossary Off
Versions: 1 2 3 4 5 6 7 8 9 10 11 12 13 14 15 16 17 18 19 20 21

649
FTUS41 KRLX 152337
TAFCRW
TAF
KCRW 152337Z 1600/1624 20004KT 4SM -SHRA OVC040
     FM160100 21004KT P6SM -SHRA OVC035
     FM160200 21004KT P6SM OVC025
     FM160400 22006KT P6SM OVC015
     FM160500 23006KT 6SM -DZ OVC007
     FM160700 25006KT P6SM OVC015
     FM160900 25006KT P6SM BKN025=

USA.gov is the U.S. government's official web portal to all federal, state and local government web resources and services.